Terminal Aerodrome Forecast
Issued by NWS Boise, ID

Home | Current Version | Previous Version | Text Only | Print | Product List | Glossary On
Versions: 1 2 3 4 5 6 7 8 9 10 11 12 13 14 15 16 17 18 19
000
FTUS45 KBOI 191720
TAFBNO
TAF
KBNO 191720Z 1918/2018 VRB05KT P6SM VCSH BKN035 BKN050
     FM200300 VRB03KT P6SM SCT002 BKN035
     FM201500 07011KT 3SM -SHSN OVC020=

USA.gov is the U.S. government's official web portal to all federal, state and local government web resources and services.